NWS Home NWS Lubbock West Texas Mesonet Latest Conditions as of 0722 PM, Fri Oct 23, 2020

Latest   N   C   S   Daily Sum   3hrΔ   24hrΔ   Soil Data 
Site Map   24hr Precip   72hr Precip   Google Plot


Station Time of Last Temp Dew Pt. RH Wind Direction Wind Speed Wind Gust Max Wind Max Temp Min Temp Max RH Min RH Altimeter 1HR Rain Today's Rain Solar Rad RFTI
Abernathy 5ENE  07:15 PM 46 30 52% NE1012 42 mph 22° @ 0434 AM 71 41 81 50 30.27" 0 0 0 0
Adrian 6WSW  07:15 PM 39 24 55% NE89 40 mph 28° @ 0132 AM 44 29 84 48 30.30" 0 0 2 0
Aiken 3WSW  07:15 PM 44 29 55% NE811 38 mph 5° @ 0410 AM 70 40 82 50 30.29" 0 0 1 0
Amarillo 15NNW   07:15 PM 41 25 53% NE89 36 mph 7° @ 0159 AM 48 34 77 43 30.30" 0 0 1 0
Amarillo 7SSE  07:15 PM 39 25 55% NE89 40 mph 356° @ 0148 AM 47 34 90 46 30.30" 0 0 1 0
Amarillo 9NNE  07:15 PM 41 26 54% N1011 36 mph 5° @ 1202 AM 47 34 83 46 30.30" 0 0 1 0
Amherst 1NE  07:15 PM 45 28 53% NE911 38 mph 1° @ 0340 AM 54 39 82 45 30.28" 0 0 0 0
Andrews 2E  07:15 PM 51 32 48% NE1114 31 mph 7° @ 0900 AM 70 46 77 44 30.26" 0 0 2 0
Anton 6SSW  07:15 PM 45 29 53% NE911 40 mph 5° @ 0340 AM 69 41 79 48 30.28" 0 0 2 0
Aspermont 3NE  07:15 PM 49 35 61% N1014 41 mph 347° @ 0325 AM 71 43 83 59 30.28" 0 0 0 0
Big Bend NP - Castolon  07:15 PM 78 44 30% N1620 30 mph 9° @ 0635 PM 95 66 53 16 30.00" 0 0 2 0
Big Bend NP - Persimmon Gap  07:15 PM 68 41 38% NE2225 36 mph 58° @ 0414 PM 81 60 78 25 30.13" 0 0 4 0
Big Lake 1WNW  07:15 PM 49 35 59% N1618 27 mph 19° @ 1003 AM 72 49 94 58 30.23" 0 0 2 0
Bootleg 11WNW  07:15 PM 39 23 53% NE78 39 mph 22° @ 0118 AM 46 29 89 43 30.30" 0 0 2 0
Borger 7E  07:15 PM 42 25 51% N710 43 mph 1° @ 0208 AM 47 35 93 44 30.30" 0 0 1 0
Boys Ranch 1WSW  07:15 PM 42 25 50% NE79 35 mph 27° @ 0239 AM 48 33 73 42 30.32" 0 0 1 0
Brownfield 2S  07:15 PM 49 32 53% NE1214 45 mph 20° @ 0644 AM 69 43 85 47 30.26" 0 0 0 0
Canadian 6E  07:15 PM 43 27 53% NE910 44 mph 349° @ 0841 AM 50 35 100 44 30.28" 0 0 0 0
Caprock Canyons State Park  07:10 PM 47 30 50% NE711 41 mph 353° @ 0202 AM 57 40 77 47 30.29" 0 0 1 0
Childress 2NNE  07:15 PM 49 31 50% NE812 44 mph 350° @ 0345 AM 76 41 79 48 30.28" 0 0 0 0
Clarendon 2WSW  07:15 PM 44 28 53% N911 41 mph 10° @ 0445 AM 50 38 81 46 30.29" 0 0 1 0
Claude 12SW  07:15 PM 40 25 55% NE78 43 mph 357° @ 0206 AM 48 35 87 47 30.29" 0 0 1 0
Clyde 2WNW  07:15 PM 45 36 72% N1317 33 mph 13° @ 0530 AM 72 43 89 66 30.25" 0 0 0 0
Colorado City 5NW  07:15 PM 49 34 55% N810 36 mph 348° @ 0511 AM 68 46 89 52 30.28" 0 0 0 0
Comanche Springs  07:15 PM 49 33 54% N1116 41 mph 345° @ 0441 AM 73 41 93 54 30.28" 0 0.03 0 0
Coyanosa 2N  07:15 PM 57 37 47% NE67 24 mph 357° @ 0732 AM 73 52 86 42 30.24" 0 0 3 0
Crane 1NNW   07:15 PM 55 35 47% E910 30 mph 18° @ 0716 AM 76 53 73 45 30.24" 0 0 2 0
Crowell 1E  07:15 PM 49 37 62% NE1013 42 mph 1° @ 0511 AM 73 43 96 55 30.28" 0 0.29 0 0
Dell City  07:15 PM 59 32 37% SW12 23 mph 298° @ 0317 PM 69 45 70 28 30.20" 0 0 8 0
Denver City 7WNW  07:15 PM 48 32 54% E911 34 mph 9° @ 0355 AM 67 42 80 27 30.26" 0 0 4 0
Dimmitt 2NE  07:15 PM 42 26 54% NE810 42 mph 6° @ 0120 AM 47 34 85 48 30.28" 0 0 2 0
Doole 3WNW  07:15 PM 48 38 67% N1013 27 mph 10° @ 0855 AM 75 48 93 61 30.24" 0 0.01 0 0
Dora NM 2SW  07:15 PM 44 26 49% NE710 37 mph 24° @ 0630 AM 61 33 84 31 30.27" 0 0 3 0
Dozier 3W  07:15 PM 47 30 51% N79 42 mph 351° @ 0232 AM 53 39 85 46 30.30" 0 0 0 0
Earth 9WSW  07:15 PM 44 27 53% NE910 38 mph 8° @ 0300 AM 51 36 82 45 30.29" 0 0 0 0
Endee NM 2SW  07:15 PM 41 25 53% NE910 35 mph 29° @ 0132 AM 47 32 80 42 30.30" 0 0 2 0
Estelline 3SSE  07:15 PM 51 30 44% N813 37 mph 350° @ 0451 AM 78 42 72 44 30.29" 0 0 0 0
Floydada 2NNE  07:15 PM 46 28 49% NE1215 36 mph 11° @ 0535 AM 70 41 75 47 30.27" 0 0 0 0
Fluvanna 3WNW  07:15 PM 47 31 52% N1317 37 mph 15° @ 0845 AM 71 44 76 52 30.26" 0 0 1 0
Fort Chadbourne  07:15 PM 46 37 70% N59 30 mph 20° @ 0936 AM 70 45 96 69 30.26" 0 0 0 0
Fort Lancaster  07:15 PM 56 41 58% N1012 27 mph 347° @ 1210 PM 77 56 96 47 30.21" 0 0 1 0
Fort Lewis CO  07:15 PM 55 23 28% NW810 30 mph 307° @ 0253 PM 66 29 77 21 30.19" 0 0 13 0
Fort McKavett  07:15 PM 47 40 77% N1013 24 mph 355° @ 0239 PM 73 47 99 63 30.23" 0 0.01 0 0
Friona 2NE  07:15 PM 41 25 54% NE911 38 mph 14° @ 1205 AM 47 31 81 46 30.29" 0 0 2 0
Fritch 1WNW  07:15 PM 43 26 52% NE810 38 mph 23° @ 1233 AM 46 35 83 47 30.30" 0 0 1 0
Gail 2ESE  07:15 PM 49 30 48% N1116 34 mph 15° @ 0725 AM 72 47 84 46 30.27" 0 0 1 0
Goodlett 3W  07:15 PM 49 34 56% N913 41 mph 354° @ 0455 AM 77 41 100 55 30.28" 0 0.76 0 0
Goodnight  07:15 PM 41 26 55% NE911 45 mph 352° @ 0140 AM 49 36 83 43 30.30" 0 0 1 0
Graham 5SSW  07:15 PM 47 30 52% NE1418 37 mph 22° @ 0840 AM 73 44 76 52 30.27" 0 0 1 0
Guadalupe Mtns Natl Park  07:15 PM 47 27 46% NE1113 34 mph 280° @ 0333 AM 72 47 62 21 30.28" 0 0 6 0
Guthrie 10WSW  07:15 PM 49 30 47% NE1318 43 mph 355° @ 0510 AM 72 43 73 44 30.27" 0 0 0 0
Hackberry 2SSE  07:15 PM 49 32 52% N1418 42 mph 358° @ 0456 AM 75 42 88 50 30.28" 0 0 0 0
Happy 1E  07:15 PM 42 27 55% NE1214 44 mph 18° @ 0144 AM 48 36 84 48 30.30" 0 0 1 0
Hart 3N  07:15 PM 43 27 55% NE1115 39 mph 6° @ 0135 AM 48 37 86 49 30.28" 0 0 2 0
Haskell 1NW  07:15 PM 48 35 63% N1317 39 mph 355° @ 0435 AM 72 44 88 62 30.27" 0 0 0 0
Hefner 1SW  07:15 PM 48 35 60% N1720 43 mph 347° @ 0524 AM 72 43 92 60 30.28" 0 0 0 0
Hereford 2NW  07:15 PM 41 25 53% NE811 37 mph 6° @ 0220 AM 47 32 82 47 30.28" 0 0 2 0
Hobbs NM 5NW  07:15 PM 49 30 47% NE57 38 mph 27° @ 0633 AM 68 43 75 17 30.28" 0 0 3 0
Jayton 1SSE  07:15 PM 49 32 53% NE1115 37 mph 357° @ 0320 AM 73 44 79 52 30.28" 0 0.01 0 0
Junction 1SSW  07:15 PM 51 41 68% N1419 31 mph 12° @ 1139 AM 80 51 90 63 30.21" 0 0 0 0
Kent 9E  07:15 PM 55 36 50% NE1114 33 mph 352° @ 0705 AM 73 49 65 21 30.25" 0 0 6 0
Knox City 3NW  07:15 PM 49 35 57% N912 41 mph 348° @ 0337 AM 71 44 86 56 30.28" 0 0 0 0
Lake Alan Henry 1NW  07:15 PM 49 31 49% NE1215 32 mph 22° @ 0358 AM 75 46 74 48 30.27" 0 0 0 0
Lake McClellan 2NW  07:15 PM 41 27 57% N89 46 mph 354° @ 0150 AM 48 35 90 47 30.29" 0 0 1 0
Lamesa 2SE  07:15 PM 49 32 54% NE1015 34 mph 16° @ 0900 AM 69 46 86 49 30.27" 0 0 1 0
Lesley 2S  07:15 PM 50 30 46% N1214 37 mph 343° @ 0219 AM 56 42 74 42 30.29" 0 0 0 0
Levelland 4S  07:15 PM 46 30 53% NE810 43 mph 13° @ 0240 AM 68 41 79 48 30.27" 0 0 2 0
Lomax 1SSE  07:15 PM 50 32 50% NE1215 31 mph 13° @ 0147 PM 70 49 83 47 30.27" 0 0 1 0
Lubbock 3WNW TTU  07:15 PM 48 30 51% NE1114 34 mph 16° @ 0420 AM 73 42 79 50 30.27" 0 0 1 0
McAdoo 3NNW  07:15 PM 46 30 54% NE1418 42 mph 15° @ 0602 AM 70 41 78 52 30.27" 0 0 0 0
McCamey 1SSW  07:15 PM 56 37 49% N810 26 mph 29° @ 0948 AM 76 55 78 49 30.24" 0 0 2 0
McLean 1E  07:15 PM 43 28 55% N710 42 mph 349° @ 0610 AM 49 35 97 47 30.27" 0 0 1 0
Memphis 1NE  07:15 PM 50 29 46% N914 43 mph 1° @ 0340 AM 58 41 78 44 30.29" 0 0 0 0
Menard 2NW   07:15 PM 47 39 72% N1618 28 mph 3° @ 1018 AM 73 47 96 67 30.23" 0 0.02 0 0
Mertzon 3NNE  07:15 PM 48 36 62% N1012 30 mph 343° @ 0756 AM 73 48 100 60 30.25" 0 0 0 0
Morton 1ENE  07:15 PM 47 27 46% NE911 39 mph 12° @ 0210 AM 66 39 77 39 30.27" 0 0 3 0
Muleshoe 2SSW  07:15 PM 44 28 53% NE710 36 mph 27° @ 1205 AM 51 36 82 45 30.28" 0 0 3 0
New Home  07:15 PM 47 31 52% NE1013 32 mph 31° @ 0604 AM 70 43 78 49 30.28" 0 0 1 0
Northfield 1S  07:15 PM 50 28 43% NE1015 35 mph 5° @ 0410 AM 75 42 71 41 30.29" 0 0 0 0
O'Donnell 1N  07:15 PM 48 31 53% NE1316 36 mph 7° @ 0515 AM 71 45 86 48 30.26" 0 0 1 0
Odell 4ENE  07:15 PM 48 34 59% N1112 39 mph 346° @ 0457 AM 73 42 96 55 30.28" 0 0.22 0 0
Olton 6S  07:15 PM 44 29 56% NE912 41 mph 12° @ 0140 AM 54 39 84 48 30.27" 0 0 2 0
Paducah 10SW  07:15 PM 49 31 52% N1318 41 mph 1° @ 0340 AM 76 42 75 48 30.28" 0 0 0 0
Palo Duro 4E (JA Ranch)  07:15 PM 44 28 53% N78 41 mph 358° @ 0259 AM 52 40 76 43 30.30" 0 0 1 0
Palo Duro Canyon SP Floor  07:15 PM 45 27 48% W23 36 mph 331° @ 1251 AM 53 39 76 39 30.30" 0 0 1 0
Palo Duro Canyon State Park Rim  07:15 PM 42 25 51% NE79 41 mph 15° @ 1235 AM 48 35 82 43 30.30" 0 0 1 0
Palo Duro Reservoir 1NW   04:40 PM 47 25 42% N1620 38 mph 350° @ 0357 AM 47 33 95 42 30.31" 0 0 385 0
Pampa 2E  07:15 PM 40 26 57% N79 43 mph 338° @ 0220 AM 45 33 97 50 30.29" 0 0 1 0
Panhandle 1SSW  07:15 PM 41 26 55% NE810 41 mph 350° @ 0211 AM 45 34 95 50 30.30" 0 0 1 0
Plains 3N  07:15 PM 47 32 56% E89 37 mph 6° @ 0340 AM 68 41 82 36 30.26" 0 0 4 0
Plainview 1S  07:15 PM 45 28 52% NE811 44 mph 358° @ 0313 AM 57 39 81 47 30.27" 0 0 1 0
Post 1NE  07:15 PM 49 28 46% NE1216 39 mph 310° @ 0300 AM 74 46 68 44 30.27" 0 0 0 0
Ralls 1SE  07:15 PM 47 27 47% NE1316 36 mph 12° @ 0655 AM 70 42 73 46 30.28" 0 0.01 0 0
Reese Center  07:15 PM 47 30 51% NE1114 42 mph 20° @ 0610 AM 70 41 80 48 30.27" 0 0 0 0
Roaring Springs 3N  07:15 PM 47 32 57% NE1216 37 mph 3° @ 0445 AM 72 41 82 54 30.27" 0 0 0 0
Romero 11SSW  07:15 PM 40 25 54% E89 39 mph 17° @ 1203 AM 47 31 78 44 30.30" 0 0 2 0
Rotan 5W  07:15 PM 49 33 56% N1416 35 mph 360° @ 0539 AM 69 45 90 54 30.27" 0 0 0 0
San Angelo 7NW  07:15 PM 47 35 64% N812 24 mph 349° @ 0405 PM 72 47 93 60 30.25" 0 0 0 0
Seagraves 1SW  07:15 PM 49 32 52% NE811 34 mph 9° @ 0605 AM 66 43 89 47 30.27" 0 0 1 0
Segovia 7SSW  07:15 PM 49 43 78% N1317 28 mph 359° @ 1213 PM 78 49 88 65 30.19" 0 0.01 0 0
Seminole 2NNE  07:15 PM 50 32 50% NE1014 37 mph 18° @ 0710 AM 69 45 82 45 30.27" 0 0 2 0
Seymour 3NW  07:15 PM 48 36 64% N1317 41 mph 335° @ 0525 AM 74 44 96 63 30.27" 0 0.03 0 0
Sierra Blanca 1SSE  07:15 PM 58 35 42% E1923 27 mph 108° @ 0639 PM 75 58 42 21 30.19" 0 0 8 0
Silverton 7ESE  07:15 PM 44 29 54% NE1214 42 mph 6° @ 0515 AM 54 38 81 50 30.28" 0 0 1 0
Slaton 2NE  07:15 PM 47 30 51% NE1218 41 mph 6° @ 0517 AM 72 43 74 49 30.28" 0 0 1 0
Smyer  07:15 PM 46 30 54% NE79 36 mph 6° @ 0403 AM 70 41 79 49 30.27" 0 0 0 0
Snyder 3E  07:15 PM 48 33 56% N1318 37 mph 12° @ 0620 AM 71 45 81 55 30.26" 0 0 1 0
Snyder 3SSW  07:15 PM 48 33 56% NE1315 36 mph 24° @ 1043 AM 71 45 84 55 30.27" 0 0 0 0
South Plains 3ENE  07:15 PM 45 29 52% NE1213 36 mph 9° @ 0444 AM 73 40 79 48 30.28" 0 0 1 0
Spur 1W  07:15 PM 49 31 49% NE1116 37 mph 21° @ 0550 AM 71 45 81 47 30.27" 0 0 0 0
St. Lawrence 5SW  07:15 PM 49 33 54% NE1418 33 mph 310° @ 0635 AM 71 49 82 54 30.25" 0 0 1 0
Stamford 5ESE  07:15 PM 48 36 63% N1214 37 mph 353° @ 0501 AM 74 45 84 60 30.28" 0 0 0 0
Sterling City 4WSW  07:15 PM 48 32 54% N914 30 mph 355° @ 0945 AM 73 47 100 53 30.26" 0 0 0 0
Stinnett 1NNW  07:15 PM 39 24 54% NE89 42 mph 360° @ 1209 AM 45 33 100 48 30.30" 0 0 1 0
Stratford 4WNW  07:15 PM 36 23 58% NE78 36 mph 6° @ 1247 AM 43 29 79 46 30.31" 0 0 1 0
Sundown 8WSW  07:15 PM 46 30 54% E79 37 mph 15° @ 0520 AM 67 41 79 46 30.27" 0 0 3 0
Sweetwater 11SW   07:15 PM 46 34 63% NE1518 39 mph 27° @ 0955 AM 73 43 83 59 30.26" 0 0 0 0
Tahoka 3NNE  07:15 PM 47 31 53% NE1013 38 mph 16° @ 0633 AM 71 43 81 47 30.27" 0 0 0 0
Tarzan 2WNW  07:15 PM 50 32 50% NE1013 31 mph 4° @ 0548 AM 71 47 83 47 30.27" 0 0 1 0
Tatum NM 2SW  07:15 PM 48 29 49% NE79 39 mph 14° @ 0230 AM 63 37 77 19 30.27" 0 0 5 0
Throckmorton 1SW  07:15 PM 48 37 68% N811 32 mph 327° @ 0517 AM 73 45 91 66 30.26" 0 0.02 0 0
Truscott 2SE  07:15 PM 49 35 58% N1014 37 mph 350° @ 0512 AM 71 43 93 57 30.28" 0 0.16 0 0
Tulia 2ENE  07:15 PM 43 27 51% NE911 40 mph 2° @ 0230 AM 50 38 82 46 30.28" 0 0 1 0
Turkey 2WSW  07:15 PM 49 29 47% N1215 41 mph 316° @ 1250 AM 57 41 73 45 30.28" 0 0 1 0
Umbarger 3NNE  07:15 PM 40 25 56% NE78 40 mph 23° @ 1207 AM 46 33 84 47 30.29" 0 0 1 0
Van Horn 3ENE  07:15 PM 57 36 45% NE1517 29 mph 11° @ 0306 PM 70 56 48 24 30.22" 0 0 8 0
Vega 4E  07:15 PM 39 24 55% NE89 43 mph 14° @ 0118 AM 45 30 80 45 30.29" 0 0 2 0
Vigo Park  07:15 PM 41 27 57% NE79 36 mph 4° @ 0838 AM 49 37 86 47 30.29" 0 0 1 0
Wall 2E  07:15 PM 47 37 70% N1417 37 mph 358° @ 0815 AM 75 47 90 58 30.26" 0 0 0 0
Weinert 2NNE  07:15 PM 48 35 60% N1620 40 mph 354° @ 0631 AM 71 44 87 59 30.28" 0 0 0 0
Welch  07:15 PM 49 32 52% NE1012 36 mph 5° @ 0403 AM 67 45 100 47 30.28" 0 0 1 0
White River Lake 6NW  07:15 PM 48 30 49% N1416 48 mph 4° @ 0628 AM 71 43 83 48 30.27" 0 0 0 0
Wolfforth 6SSW  07:15 PM 48 30 51% NE1012 42 mph 17° @ 0430 AM 70 42 79 48 30.27" 0 0 1 0

West Texas Mesonet Home   Site Map/Menu  NWS Lubbock Soil Data  Daily Summary Page  24hr Precip  72hr Precip  Google Plot